createdAt,value
2019-03-18T00:01:51.641Z,4.50
2019-03-18T00:04:25.178Z,4.50
2019-03-18T00:07:00.066Z,4.50
2019-03-18T00:09:42.067Z,4.50
2019-03-18T00:12:22.794Z,4.50
2019-03-18T00:15:08.478Z,4.50
2019-03-18T00:17:39.583Z,4.60
2019-03-18T00:20:16.066Z,4.50
2019-03-18T00:22:55.513Z,4.50
2019-03-18T00:25:45.793Z,4.50
2019-03-18T00:28:21.169Z,4.50
2019-03-18T00:31:09.057Z,4.50
2019-03-18T00:33:49.073Z,4.50
2019-03-18T00:37:00.731Z,4.50
2019-03-18T00:39:31.698Z,4.50
2019-03-18T00:42:24.019Z,4.50
2019-03-18T00:45:25.740Z,4.50
2019-03-18T00:48:45.865Z,4.50
2019-03-18T00:51:45.641Z,4.50
2019-03-18T00:54:49.122Z,4.40
2019-03-18T00:57:30.242Z,4.40
2019-03-18T01:00:09.656Z,4.40
2019-03-18T01:02:55.166Z,4.40
2019-03-18T01:05:40.447Z,4.40
2019-03-18T01:08:15.494Z,4.40
2019-03-18T01:10:53.788Z,4.40
2019-03-18T01:13:53.164Z,4.40
2019-03-18T01:16:36.534Z,4.40
2019-03-18T01:19:33.135Z,4.40
2019-03-18T01:22:45.900Z,4.40
2019-03-18T01:25:38.423Z,4.40
2019-03-18T01:28:24.978Z,4.40
2019-03-18T01:31:33.345Z,4.30
2019-03-18T01:34:09.560Z,4.30
2019-03-18T01:36:49.176Z,4.30
2019-03-18T01:39:25.834Z,4.40
2019-03-18T01:42:03.468Z,4.30
2019-03-18T01:44:54.937Z,4.30
2019-03-18T01:47:38.492Z,4.30
2019-03-18T01:50:22.344Z,4.30
2019-03-18T01:53:00.478Z,4.30
2019-03-18T01:55:32.379Z,4.30
2019-03-18T01:58:06.904Z,4.30
2019-03-18T02:00:40.107Z,4.20
2019-03-18T02:03:31.011Z,4.10
2019-03-18T02:06:20.359Z,4.10
2019-03-18T02:08:54.819Z,4.00
2019-03-18T02:11:49.611Z,3.90
2019-03-18T02:14:53.928Z,3.80
2019-03-18T02:17:39.634Z,3.80
2019-03-18T02:20:19.569Z,3.80
2019-03-18T02:23:05.139Z,3.70
2019-03-18T02:26:22.632Z,3.70
2019-03-18T02:29:03.670Z,3.70
2019-03-18T02:31:47.437Z,3.60
2019-03-18T02:34:28.475Z,3.60
2019-03-18T02:37:17.753Z,3.60
2019-03-18T02:39:53.773Z,3.50
2019-03-18T04:48:49.958Z,4.30
2019-03-18T04:51:44.998Z,4.40
2019-03-18T04:54:27.150Z,4.40
2019-03-18T05:01:21.813Z,4.50
2019-03-18T05:03:48.716Z,4.50
2019-03-18T05:06:32.574Z,4.50
2019-03-18T05:09:19.533Z,4.60
2019-03-18T05:11:49.987Z,4.60
2019-03-18T05:14:20.712Z,4.70
2019-03-18T05:16:50.629Z,4.70
2019-03-18T05:19:34.346Z,4.60
2019-03-18T05:22:06.175Z,4.70
2019-03-18T05:24:44.474Z,4.60
2019-03-18T05:27:18.049Z,4.70
2019-03-18T05:29:49.998Z,4.70
2019-03-18T05:32:25.753Z,4.70
2019-03-18T05:34:53.329Z,4.70
2019-03-18T05:37:24.369Z,4.70
2019-03-18T05:39:59.122Z,4.70
2019-03-18T05:42:28.916Z,4.70
2019-03-18T05:45:00.378Z,4.70
2019-03-18T05:47:39.298Z,4.70
2019-03-18T05:50:03.411Z,4.70
2019-03-18T05:52:33.719Z,4.70
2019-03-18T05:55:04.462Z,4.70
2019-03-18T05:57:34.332Z,4.70
2019-03-18T06:00:04.616Z,4.70
2019-03-18T06:02:34.896Z,4.70
2019-03-18T06:05:05.489Z,4.80
2019-03-18T06:07:35.703Z,4.80
2019-03-18T06:10:06.659Z,4.90
2019-03-18T06:12:36.627Z,4.90
2019-03-18T06:15:07.121Z,4.90
2019-03-18T06:17:37.182Z,5.00
2019-03-18T06:20:10.118Z,5.00
2019-03-18T06:22:43.342Z,5.10
2019-03-18T06:25:14.605Z,5.10
2019-03-18T06:27:47.363Z,5.10
2019-03-18T06:30:18.299Z,5.10
2019-03-18T06:32:50.235Z,5.20
2019-03-18T06:35:20.689Z,5.20
2019-03-18T06:37:52.358Z,5.10
2019-03-18T06:40:22.112Z,5.10
2019-03-18T06:42:52.850Z,5.20
2019-03-18T06:45:22.799Z,5.30
2019-03-18T07:07:11.659Z,5.50
2019-03-18T07:09:41.286Z,5.50
2019-03-18T07:12:11.632Z,5.60
2019-03-18T07:14:41.850Z,5.70
2019-03-18T07:17:14.586Z,5.70
2019-03-18T07:19:44.848Z,5.70
2019-03-18T07:22:20.520Z,5.80
2019-03-18T07:24:50.471Z,5.80
2019-03-18T07:27:20.161Z,5.80
2019-03-18T07:29:50.062Z,5.80
2019-03-18T07:32:19.899Z,5.80
2019-03-18T07:35:02.710Z,5.90
2019-03-18T07:37:37.004Z,6.00
2019-03-18T07:40:12.539Z,6.10
2019-03-18T07:42:43.701Z,6.10
2019-03-18T07:45:15.782Z,6.20
2019-03-18T07:47:45.412Z,6.20
2019-03-18T07:50:16.045Z,6.20
2019-03-18T07:52:46.004Z,6.20
2019-03-18T07:55:15.941Z,6.10
2019-03-18T07:57:45.700Z,6.20
2019-03-18T08:00:15.761Z,6.30
2019-03-18T08:02:46.346Z,6.20
2019-03-18T08:05:16.067Z,6.10
2019-03-18T08:07:46.783Z,6.20
2019-03-18T08:10:16.596Z,6.30
2019-03-18T08:12:46.380Z,6.30
2019-03-18T08:15:16.064Z,6.40
2019-03-18T08:17:47.458Z,6.60
2019-03-18T08:20:17.556Z,6.50
2019-03-18T08:22:47.768Z,6.50
2019-03-18T08:25:17.505Z,6.50
2019-03-18T08:27:47.251Z,6.50
2019-03-18T08:30:17.329Z,6.50
2019-03-18T08:32:47.171Z,6.40
2019-03-18T08:35:17.387Z,6.50
2019-03-18T08:37:47.095Z,6.50
2019-03-18T08:40:17.892Z,6.60
2019-03-18T08:42:50.681Z,6.70
2019-03-18T08:45:21.102Z,7.00
2019-03-18T08:47:50.935Z,7.00
2019-03-18T08:50:21.645Z,7.00
2019-03-18T08:52:51.601Z,6.90
2019-03-18T08:55:22.078Z,6.90
2019-03-18T08:57:51.941Z,6.90
2019-03-18T09:00:21.719Z,6.80
2019-03-18T09:02:51.508Z,6.80
2019-03-18T09:05:21.371Z,6.70
2019-03-18T09:07:51.251Z,6.60
2019-03-18T09:10:20.889Z,6.70
2019-03-18T09:12:53.274Z,6.70
2019-03-18T09:15:23.393Z,6.70
2019-03-18T09:17:53.171Z,6.80
2019-03-18T09:20:23.162Z,6.90
2019-03-18T09:22:53.054Z,7.10
2019-03-18T09:25:22.688Z,7.20
2019-03-18T09:27:56.590Z,7.40
2019-03-18T09:30:26.934Z,7.40
2019-03-18T09:32:57.092Z,7.60
2019-03-18T09:35:29.941Z,7.80
2019-03-18T09:37:59.553Z,8.00
2019-03-18T09:40:29.665Z,8.10
2019-03-18T09:42:59.618Z,8.00
2019-03-18T09:45:29.628Z,7.90
2019-03-18T09:47:59.426Z,7.80
2019-03-18T09:50:31.362Z,7.60
2019-03-18T09:53:00.734Z,7.40
2019-03-18T09:55:30.416Z,7.30
2019-03-18T09:58:00.433Z,7.30
2019-03-18T10:00:30.620Z,7.40
2019-03-18T10:03:00.645Z,7.40
2019-03-18T10:05:30.594Z,7.30
2019-03-18T10:08:00.492Z,7.30
2019-03-18T10:10:30.233Z,7.30
2019-03-18T10:13:02.571Z,7.30
2019-03-18T10:15:32.370Z,7.30
2019-03-18T10:18:05.133Z,7.40
2019-03-18T10:20:38.643Z,7.60
2019-03-18T10:23:09.349Z,7.70
2019-03-18T10:25:39.612Z,7.60
2019-03-18T10:28:10.877Z,7.50
2019-03-18T10:30:41.426Z,7.30
2019-03-18T10:33:11.876Z,7.30
2019-03-18T10:35:42.221Z,7.40
2019-03-18T10:38:14.773Z,7.60
2019-03-18T10:40:44.761Z,8.10
2019-03-18T10:43:15.306Z,8.50
2019-03-18T10:45:45.109Z,8.70
2019-03-18T10:48:15.394Z,9.10
2019-03-18T10:50:45.244Z,9.20
2019-03-18T10:53:16.032Z,9.30
2019-03-18T10:55:46.550Z,9.10
2019-03-18T10:58:18.177Z,9.00
2019-03-18T11:00:51.068Z,8.70
2019-03-18T11:03:41.879Z,8.70
2019-03-18T11:06:24.450Z,8.60
2019-03-18T11:09:03.215Z,8.40
2019-03-18T11:11:37.965Z,8.40
2019-03-18T11:14:12.351Z,8.50
2019-03-18T11:16:53.224Z,8.40
2019-03-18T11:19:30.008Z,8.50
2019-03-18T11:22:07.020Z,8.50
2019-03-18T11:24:45.231Z,8.50
2019-03-18T11:27:16.238Z,8.40
2019-03-18T11:29:51.797Z,8.40
2019-03-18T11:32:31.996Z,8.60
2019-03-18T11:35:21.166Z,9.10
2019-03-18T11:38:05.346Z,9.60
2019-03-18T11:40:43.382Z,10.00
2019-03-18T11:43:29.100Z,9.90
2019-03-18T11:45:59.404Z,9.80
2019-03-18T11:48:37.080Z,9.70
2019-03-18T11:51:17.032Z,9.50
2019-03-18T11:54:07.787Z,9.50
2019-03-18T11:56:44.215Z,9.80
2019-03-18T11:59:15.493Z,9.90
2019-03-18T12:01:48.382Z,9.60
2019-03-18T12:04:23.142Z,9.50
2019-03-18T12:07:19.574Z,9.50
2019-03-18T12:09:57.302Z,9.60
2019-03-18T12:12:41.539Z,10.20
2019-03-18T12:15:39.578Z,10.60
2019-03-18T12:18:27.102Z,10.70
2019-03-18T12:20:59.063Z,10.80
2019-03-18T12:23:33.602Z,10.50
2019-03-18T12:26:05.349Z,10.50
2019-03-18T12:28:38.497Z,10.80
2019-03-18T12:31:14.290Z,10.70
2019-03-18T12:33:57.441Z,10.60
2019-03-18T12:36:29.414Z,10.20
2019-03-18T12:39:04.068Z,9.60
2019-03-18T12:41:38.662Z,8.50
2019-03-18T12:44:13.052Z,7.90
2019-03-18T12:46:52.741Z,7.60
2019-03-18T12:49:23.771Z,7.60
2019-03-18T12:51:53.840Z,7.80
2019-03-18T12:54:24.901Z,8.10
2019-03-18T12:56:55.121Z,8.20
2019-03-18T12:59:27.924Z,8.30
2019-03-18T13:01:57.888Z,8.40
2019-03-18T13:04:28.218Z,8.50
2019-03-18T13:06:58.516Z,8.70
2019-03-18T13:09:28.191Z,8.80
2019-03-18T13:11:58.440Z,8.80
2019-03-18T13:14:28.296Z,8.80
2019-03-18T13:16:58.229Z,8.90
2019-03-18T13:19:31.911Z,9.20
2019-03-18T13:22:02.171Z,9.40
2019-03-18T13:24:32.072Z,9.70
2019-03-18T13:27:01.857Z,9.80
2019-03-18T13:29:31.593Z,9.90
2019-03-18T13:32:01.610Z,10.20
2019-03-18T13:34:31.207Z,10.60
2019-03-18T13:37:00.839Z,10.90
2019-03-18T13:39:30.979Z,10.90
2019-03-18T13:42:00.602Z,10.60
2019-03-18T13:44:30.834Z,10.20
2019-03-18T13:47:00.856Z,9.60
2019-03-18T13:49:43.366Z,8.90
2019-03-18T13:52:19.376Z,7.40
2019-03-18T13:55:05.756Z,6.30
2019-03-18T13:57:53.641Z,5.90
2019-03-18T14:00:30.855Z,5.70
2019-03-18T14:03:01.744Z,5.90
2019-03-18T14:05:37.678Z,6.30
2019-03-18T14:08:11.267Z,6.60
2019-03-18T14:10:45.350Z,6.70
2019-03-18T14:13:20.298Z,6.70
2019-03-18T14:15:50.319Z,6.90
2019-03-18T14:18:26.050Z,7.00
2019-03-18T14:21:00.086Z,7.10
2019-03-18T14:23:33.045Z,7.30
2019-03-18T14:26:04.437Z,7.50
2019-03-18T14:28:37.687Z,7.60
2019-03-18T14:31:18.074Z,7.80
2019-03-18T14:33:54.641Z,7.70
2019-03-18T14:36:24.485Z,7.80
2019-03-18T14:38:54.091Z,8.00
2019-03-18T14:41:24.100Z,8.10
2019-03-18T14:43:53.987Z,8.10
2019-03-18T14:46:23.611Z,8.10
2019-03-18T14:48:53.629Z,8.00
2019-03-18T14:51:23.323Z,7.90
2019-03-18T14:53:53.206Z,7.90
2019-03-18T14:56:22.848Z,7.80
2019-03-18T14:58:55.139Z,7.90
2019-03-18T15:01:26.404Z,8.00
2019-03-18T15:03:57.267Z,8.10
2019-03-18T15:06:32.559Z,7.90
2019-03-18T15:09:06.884Z,7.80
2019-03-18T15:11:46.381Z,7.90
2019-03-18T15:14:18.008Z,7.90
2019-03-18T15:16:49.586Z,8.00
2019-03-18T15:19:23.763Z,8.20
2019-03-18T15:21:58.829Z,8.30
2019-03-18T15:24:31.149Z,8.30
2019-03-18T15:27:08.808Z,8.40
2019-03-18T15:29:55.254Z,8.30
2019-03-18T15:32:32.487Z,8.40
2019-03-18T15:35:09.301Z,8.30
2019-03-18T15:38:05.018Z,8.30
2019-03-18T15:40:36.414Z,8.30
2019-03-18T15:43:08.341Z,8.00
2019-03-18T15:45:44.700Z,7.60
2019-03-18T15:48:20.553Z,7.50
2019-03-18T15:50:54.383Z,7.50
2019-03-18T15:53:27.493Z,7.40
2019-03-18T15:56:00.790Z,7.30
2019-03-18T15:58:32.241Z,7.20
2019-03-18T16:01:08.044Z,7.10
2019-03-18T16:03:44.636Z,7.00
2019-03-18T16:06:17.377Z,6.90
2019-03-18T16:08:52.658Z,6.80
2019-03-18T16:11:29.119Z,6.80
2019-03-18T16:14:01.259Z,6.70
2019-03-18T16:17:27.316Z,6.70
2019-03-18T16:20:03.417Z,6.60
2019-03-18T16:22:39.550Z,6.40
2019-03-18T16:25:16.406Z,6.30
2019-03-18T16:27:58.206Z,6.30
2019-03-18T16:30:49.161Z,6.30
2019-03-18T16:33:29.571Z,6.40
2019-03-18T16:36:05.052Z,6.50
2019-03-18T16:39:12.275Z,6.60
2019-03-18T16:41:54.367Z,6.50
2019-03-18T16:48:03.680Z,6.40
2019-03-18T16:51:09.651Z,6.30
2019-03-18T16:54:37.678Z,6.30
2019-03-18T17:08:02.016Z,6.00
2019-03-18T17:10:32.123Z,5.90
2019-03-18T17:13:28.608Z,5.80
2019-03-18T17:16:21.272Z,5.80
2019-03-18T17:18:58.697Z,5.90
2019-03-18T17:21:31.048Z,6.00
2019-03-18T17:24:27.127Z,6.10
2019-03-18T17:27:36.183Z,6.10
2019-03-18T17:30:28.430Z,6.00
2019-03-18T17:33:12.767Z,5.80
2019-03-18T17:36:13.849Z,5.60
2019-03-18T17:38:54.365Z,5.30
2019-03-18T17:41:38.015Z,5.00
2019-03-18T17:44:25.791Z,4.70
2019-03-18T17:47:00.613Z,4.50
2019-03-18T17:49:35.090Z,4.40
2019-03-18T17:52:13.863Z,4.30
2019-03-18T17:55:25.952Z,4.20
2019-03-18T17:58:05.937Z,4.10
2019-03-18T18:04:17.059Z,4.10
2019-03-18T18:10:17.298Z,4.40
2019-03-18T18:12:50.063Z,4.50
2019-03-18T18:15:41.309Z,4.60
2019-03-18T18:18:42.173Z,4.80
2019-03-18T18:21:31.306Z,4.80
2019-03-18T18:24:50.476Z,4.90
2019-03-18T18:27:22.748Z,5.00
2019-03-18T18:33:13.122Z,4.90
2019-03-18T18:40:25.908Z,4.80
2019-03-18T18:42:52.367Z,4.80
2019-03-18T20:55:55.991Z,4.10
2019-03-18T21:02:38.982Z,4.30
2019-03-18T21:05:09.454Z,4.20
2019-03-18T21:07:39.327Z,4.20
2019-03-18T21:10:09.647Z,4.10
2019-03-18T21:12:41.662Z,4.10
2019-03-18T21:15:11.599Z,4.10
2019-03-18T21:17:41.319Z,4.10
2019-03-18T21:20:13.174Z,4.10
2019-03-18T21:22:47.462Z,4.00
2019-03-18T21:25:17.618Z,3.90
2019-03-18T21:27:48.091Z,3.90
2019-03-18T21:30:18.249Z,3.90
2019-03-18T21:32:52.812Z,3.90
2019-03-18T21:35:22.694Z,3.90
2019-03-18T21:37:52.248Z,3.90
2019-03-18T21:40:22.504Z,3.90
2019-03-18T21:42:52.121Z,3.90
2019-03-18T21:45:23.431Z,3.90
2019-03-18T21:47:53.554Z,3.90
2019-03-18T21:50:23.237Z,3.90
2019-03-18T21:52:52.858Z,3.90
2019-03-18T21:55:22.491Z,3.90
2019-03-18T21:58:04.123Z,4.00
2019-03-18T22:00:34.008Z,4.00
2019-03-18T22:03:03.778Z,4.10
2019-03-18T22:05:33.631Z,4.10
2019-03-18T22:08:03.340Z,4.20
2019-03-18T22:10:33.123Z,4.10
2019-03-18T22:13:02.879Z,4.20
2019-03-18T22:15:32.584Z,4.20
2019-03-18T22:18:22.079Z,4.20
2019-03-18T22:20:52.940Z,4.20
2019-03-18T22:23:22.639Z,4.20
2019-03-18T22:25:52.285Z,4.10
2019-03-18T22:28:21.950Z,4.10
2019-03-18T22:30:51.664Z,4.10
2019-03-18T22:33:21.845Z,4.10
2019-03-18T22:35:51.498Z,4.00
2019-03-18T22:38:21.428Z,4.00
2019-03-18T22:40:51.431Z,4.10
2019-03-18T22:43:21.142Z,4.10
2019-03-18T22:45:51.022Z,4.20
2019-03-18T22:48:20.699Z,4.20
2019-03-18T22:50:50.474Z,4.20
2019-03-18T22:53:20.234Z,4.20
2019-03-18T22:55:49.870Z,4.30
2019-03-18T22:58:20.040Z,4.30
2019-03-18T23:00:54.925Z,4.30
2019-03-18T23:03:24.738Z,4.30
2019-03-18T23:05:54.550Z,4.30
2019-03-18T23:08:24.501Z,4.40
2019-03-18T23:10:54.655Z,4.40
2019-03-18T23:13:24.494Z,4.40
2019-03-18T23:15:54.258Z,4.40
2019-03-18T23:18:24.080Z,4.50
2019-03-18T23:20:57.052Z,4.40
2019-03-18T23:23:26.947Z,4.50
2019-03-18T23:25:58.635Z,4.50
2019-03-18T23:28:28.416Z,4.50
2019-03-18T23:31:00.427Z,4.40
2019-03-18T23:33:30.490Z,4.40
2019-03-18T23:36:00.089Z,4.50
2019-03-18T23:38:30.056Z,4.40
2019-03-18T23:40:59.859Z,4.50
2019-03-18T23:43:29.584Z,4.50
2019-03-18T23:45:59.386Z,4.50
2019-03-18T23:48:29.310Z,4.50
2019-03-18T23:50:59.007Z,4.50
2019-03-18T23:53:28.672Z,4.50
2019-03-18T23:55:58.490Z,4.50
2019-03-18T23:58:28.475Z,4.50
